createdAt,value
2018-05-12T00:21:39.087Z,26.87
2018-05-12T00:24:06.523Z,28.97
2018-05-12T00:26:33.932Z,31.53
2018-05-12T00:29:01.339Z,30.30
2018-05-12T00:31:29.527Z,35.70
2018-05-12T00:33:56.934Z,31.80
2018-05-12T00:36:25.111Z,32.13
2018-05-12T00:38:52.518Z,31.20
2018-05-12T00:43:47.671Z,34.93
2018-05-12T00:46:15.084Z,31.40
2018-05-12T00:51:09.463Z,29.47
2018-05-12T00:53:36.868Z,32.63
2018-05-12T00:56:05.050Z,34.17
2018-05-12T00:58:32.515Z,31.90
2018-05-12T01:00:59.934Z,31.50
2018-05-12T01:03:27.351Z,33.83
2018-05-12T01:05:55.531Z,32.93
2018-05-12T01:08:22.939Z,32.87
2018-05-12T01:10:50.347Z,32.47
2018-05-12T01:13:17.759Z,30.77
2018-05-12T01:15:45.170Z,30.33
2018-05-12T01:18:12.597Z,30.40
2018-05-12T01:20:40.003Z,31.23
2018-05-12T01:23:07.407Z,32.40
2018-05-12T01:28:02.539Z,32.33
2018-05-12T01:30:29.942Z,35.50
2018-05-12T01:40:18.251Z,38.17
2018-05-12T01:42:45.668Z,34.20
2018-05-12T01:45:13.071Z,34.93
2018-05-12T01:47:40.496Z,35.23
2018-05-12T01:50:08.671Z,40.93
2018-05-12T01:52:36.081Z,39.13
2018-05-12T01:55:03.488Z,36.13
2018-05-12T01:57:30.907Z,36.77
2018-05-12T01:59:58.308Z,34.50
2018-05-12T02:02:26.513Z,39.13
2018-05-12T02:04:53.902Z,38.63
2018-05-12T02:07:22.076Z,39.35
2018-05-12T02:09:50.253Z,40.80
2018-05-12T02:12:17.675Z,39.03
2018-05-12T02:14:45.855Z,40.97
2018-05-12T02:17:13.273Z,38.73
2018-05-12T02:19:41.431Z,41.37
2018-05-12T02:22:09.623Z,39.97
2018-05-12T02:24:37.031Z,38.53
2018-05-12T02:27:05.224Z,40.57
2018-05-12T02:29:32.622Z,41.47
2018-05-12T02:32:00.805Z,45.83
2018-05-12T02:34:28.219Z,41.60
2018-05-12T02:36:55.631Z,44.33
2018-05-12T02:39:23.055Z,45.70
2018-05-12T02:41:50.471Z,42.00
2018-05-12T02:44:17.883Z,46.63
2018-05-12T02:46:46.139Z,41.90
2018-05-12T02:49:13.536Z,41.55
2018-05-12T02:51:40.959Z,43.27
2018-05-12T02:54:08.367Z,42.67
2018-05-12T02:56:35.775Z,41.90
2018-05-12T02:59:03.188Z,46.97
2018-05-12T03:01:30.595Z,41.73
2018-05-12T03:03:58.771Z,39.60
2018-05-12T03:06:26.180Z,40.73
2018-05-12T03:08:53.678Z,42.50
2018-05-12T03:11:21.078Z,45.33
2018-05-12T03:13:49.256Z,41.93
2018-05-12T03:16:16.658Z,39.57
2018-05-12T03:18:44.075Z,41.27
2018-05-12T03:21:11.483Z,52.30
2018-05-12T03:23:38.906Z,41.63
2018-05-12T03:26:07.083Z,48.27
2018-05-12T03:28:34.491Z,45.83
2018-05-12T04:00:28.546Z,39.77
2018-05-12T04:02:55.957Z,42.57
2018-05-12T04:05:35.355Z,38.60
2018-05-12T04:08:15.482Z,38.10
2018-05-12T04:10:50.336Z,39.00
2018-05-12T04:18:11.647Z,39.37
2018-05-12T04:23:06.014Z,41.03
2018-05-12T04:25:33.463Z,41.83
2018-05-12T04:28:00.870Z,40.67
2018-05-12T04:30:28.288Z,39.60
2018-05-12T04:32:55.687Z,40.30
2018-05-12T04:35:23.107Z,41.83
2018-05-12T04:37:50.514Z,39.13
2018-05-12T04:40:18.704Z,40.20
2018-05-12T04:42:46.102Z,38.90
2018-05-12T04:45:13.515Z,40.17
2018-05-12T04:47:40.931Z,41.40
2018-05-12T04:50:08.347Z,41.53
2018-05-12T04:52:36.522Z,40.17
2018-05-12T04:55:03.931Z,40.50
2018-05-12T04:57:32.111Z,45.03
2018-05-12T04:59:59.522Z,40.53
2018-05-12T05:02:26.930Z,41.27
2018-05-12T05:04:54.358Z,41.47
2018-05-12T05:07:21.766Z,40.90
2018-05-12T05:09:49.939Z,42.43
2018-05-12T05:12:17.351Z,43.17
2018-05-12T05:14:44.771Z,45.07
2018-05-12T05:17:12.187Z,40.83
2018-05-12T05:19:39.603Z,41.43
2018-05-12T05:22:07.017Z,43.03
2018-05-12T05:24:34.428Z,42.83
2018-05-12T05:27:01.832Z,40.87
2018-05-12T05:29:29.238Z,40.10
2018-05-12T05:31:56.647Z,39.83
2018-05-12T05:34:24.051Z,39.77
2018-05-12T05:36:51.463Z,41.40
2018-05-12T05:39:18.867Z,40.63
2018-05-12T05:41:46.307Z,40.50
2018-05-12T05:44:13.696Z,40.03
2018-05-12T05:46:41.875Z,38.70
2018-05-12T05:49:09.326Z,38.03
2018-05-12T05:51:36.743Z,39.47
2018-05-12T05:54:04.919Z,39.93
2018-05-12T05:56:32.343Z,41.97
2018-05-12T05:59:00.515Z,41.73
2018-05-12T06:01:27.919Z,41.67
2018-05-12T06:03:55.331Z,41.33
2018-05-12T06:06:22.749Z,41.87
2018-05-12T06:08:50.165Z,43.20
2018-05-12T06:11:18.335Z,43.53
2018-05-12T06:13:45.750Z,43.70
2018-05-12T06:16:13.931Z,42.40
2018-05-12T06:18:42.099Z,40.70
2018-05-12T06:21:09.510Z,42.43
2018-05-12T06:23:37.691Z,43.47
2018-05-12T06:26:05.101Z,41.23
2018-05-12T06:28:32.508Z,41.97
2018-05-12T06:30:59.935Z,43.50
2018-05-12T06:33:27.427Z,43.13
2018-05-12T06:35:55.530Z,42.73
2018-05-12T06:38:22.943Z,42.27
2018-05-12T06:40:51.133Z,40.43
2018-05-12T06:43:18.598Z,40.40
2018-05-12T06:45:45.983Z,41.33
2018-05-12T06:48:14.159Z,43.30
2018-05-12T06:50:41.571Z,43.07
2018-05-12T06:53:08.986Z,41.90
2018-05-12T06:55:36.404Z,40.70
2018-05-12T06:58:03.819Z,40.97
2018-05-12T07:00:31.226Z,45.00
2018-05-12T07:02:58.635Z,42.67
2018-05-12T07:05:26.047Z,41.20
2018-05-12T07:07:53.463Z,42.07
2018-05-12T07:10:21.639Z,39.73
2018-05-12T07:12:49.819Z,42.33
2018-05-12T07:15:17.231Z,41.80
2018-05-12T07:17:45.433Z,39.77
2018-05-12T07:20:12.814Z,39.43
2018-05-12T07:22:40.231Z,38.33
2018-05-12T07:25:07.635Z,41.13
2018-05-12T07:27:35.056Z,40.83
2018-05-12T07:30:03.231Z,39.33
2018-05-12T07:32:30.638Z,39.50
2018-05-12T07:34:58.051Z,40.00
2018-05-12T07:37:25.462Z,39.17
2018-05-12T07:39:52.915Z,39.10
2018-05-12T07:42:20.327Z,46.33
2018-05-12T07:44:47.735Z,37.70
2018-05-12T07:47:15.140Z,37.90
2018-05-12T07:49:42.558Z,38.37
2018-05-12T07:52:10.015Z,37.67
2018-05-12T07:54:37.441Z,38.77
2018-05-12T07:57:04.844Z,38.90
2018-05-12T07:59:32.263Z,38.77
2018-05-12T08:01:59.666Z,36.53
2018-05-12T08:04:27.082Z,38.33
2018-05-12T08:06:55.258Z,38.53
2018-05-12T08:09:22.668Z,36.77
2018-05-12T08:11:50.076Z,35.27
2018-05-12T08:14:17.483Z,35.13
2018-05-12T08:16:44.907Z,34.40
2018-05-12T08:19:13.088Z,34.80
2018-05-12T08:21:40.499Z,33.67
2018-05-12T08:24:08.684Z,33.60
2018-05-12T08:26:36.091Z,31.07
2018-05-12T08:29:03.512Z,31.13
2018-05-12T08:31:30.956Z,31.93
2018-05-12T08:33:58.323Z,34.57
2018-05-12T08:36:26.504Z,29.37
2018-05-12T08:38:53.920Z,30.33
2018-05-12T08:41:21.331Z,30.13
2018-05-12T08:43:48.738Z,29.03
2018-05-12T08:46:16.155Z,28.37
2018-05-12T08:48:44.343Z,27.70
2018-05-12T08:51:11.771Z,28.03
2018-05-12T08:53:39.183Z,28.80
2018-05-12T08:56:06.595Z,28.67
2018-05-12T08:58:34.095Z,29.13
2018-05-12T09:01:01.507Z,30.60
2018-05-12T09:03:28.918Z,28.57
2018-05-12T09:05:56.318Z,29.87
2018-05-12T09:08:23.731Z,29.27
2018-05-12T09:10:51.143Z,30.27
2018-05-12T09:13:18.556Z,29.63
2018-05-12T09:15:45.958Z,31.77
2018-05-12T09:18:14.135Z,27.43
2018-05-12T09:20:41.547Z,27.73
2018-05-12T09:23:10.471Z,29.37
2018-05-12T09:25:37.929Z,31.23
2018-05-12T09:28:06.064Z,30.87
2018-05-12T09:30:33.471Z,28.90
2018-05-12T09:33:00.882Z,31.80
2018-05-12T09:35:28.295Z,27.77
2018-05-12T09:37:55.698Z,26.60
2018-05-12T09:40:23.927Z,26.83
2018-05-12T09:42:51.295Z,24.97
2018-05-12T09:45:19.480Z,24.50
2018-05-12T09:47:46.886Z,22.83
2018-05-12T09:50:14.291Z,17.70
2018-05-12T09:52:41.707Z,22.97
2018-05-12T09:55:09.120Z,24.83
2018-05-12T09:57:37.294Z,21.47
2018-05-12T10:00:05.542Z,22.73
2018-05-12T10:02:32.883Z,21.43
2018-05-12T10:05:01.060Z,22.83
2018-05-12T10:07:28.481Z,23.67
2018-05-12T10:09:56.659Z,23.20
2018-05-12T10:12:24.070Z,20.83
2018-05-12T10:14:51.483Z,22.00
2018-05-12T10:17:18.887Z,22.07
2018-05-12T10:19:46.314Z,21.13
2018-05-12T10:22:14.491Z,20.57
2018-05-12T10:24:41.915Z,21.33
2018-05-12T10:27:10.095Z,21.30
2018-05-12T10:29:37.511Z,21.23
2018-05-12T10:32:05.687Z,19.87
2018-05-12T10:34:33.135Z,19.53
2018-05-12T10:37:00.542Z,20.30
2018-05-12T10:39:28.720Z,18.20
2018-05-12T10:41:56.135Z,19.97
2018-05-12T10:44:23.550Z,20.25
2018-05-12T10:46:50.954Z,14.60
2018-05-12T10:49:18.360Z,10.77
2018-05-12T10:51:45.768Z,10.15
2018-05-12T10:54:13.167Z,9.13
2018-05-12T11:08:55.390Z,9.40
2018-05-12T11:16:17.486Z,7.35
2018-05-12T11:18:44.894Z,7.78
2018-05-12T11:21:12.299Z,7.10
2018-05-12T11:23:39.699Z,7.40
2018-05-12T11:31:01.831Z,7.30
2018-05-12T11:33:29.230Z,7.00
2018-05-12T11:55:37.379Z,7.70
2018-05-12T11:58:05.536Z,4.93
2018-05-12T12:00:32.955Z,3.80
2018-05-12T12:07:55.110Z,5.32
2018-05-12T12:12:49.487Z,4.05
2018-05-12T12:15:16.887Z,4.03
2018-05-12T12:17:45.055Z,6.25
2018-05-12T12:20:13.228Z,4.40
2018-05-12T12:22:40.638Z,4.82
2018-05-12T12:25:08.043Z,5.32
2018-05-12T12:27:35.454Z,4.35
2018-05-12T12:30:02.864Z,3.65
2018-05-12T12:37:25.015Z,3.60
2018-05-12T12:44:47.128Z,5.70
2018-05-12T12:47:14.538Z,3.78
2018-05-12T12:52:08.898Z,4.07
2018-05-12T12:54:36.304Z,3.80
2018-05-12T13:04:25.352Z,3.20
2018-05-12T13:19:09.175Z,2.20
2018-05-12T13:21:36.648Z,2.60
2018-05-12T13:26:31.728Z,3.10
2018-05-12T13:31:26.863Z,2.05
2018-05-12T13:33:55.034Z,2.30
2018-05-12T13:36:23.203Z,4.72
2018-05-12T13:38:50.622Z,2.10
2018-05-12T13:46:13.491Z,2.25
2018-05-12T13:53:34.852Z,2.37
2018-05-12T13:56:02.315Z,2.35
2018-05-12T14:03:23.595Z,3.50
2018-05-12T14:05:51.767Z,2.40
2018-05-12T14:08:19.951Z,2.10
2018-05-12T14:13:14.343Z,2.50
2018-05-12T14:15:41.747Z,5.62
2018-05-12T14:18:09.155Z,2.95
2018-05-12T14:20:36.559Z,2.50
2018-05-12T14:23:03.968Z,2.95
2018-05-12T14:25:32.127Z,2.60
2018-05-12T14:28:00.295Z,2.65
2018-05-12T14:30:27.702Z,3.33
2018-05-12T14:32:55.113Z,2.78
2018-05-12T14:37:49.477Z,2.60
2018-05-12T14:42:44.621Z,3.25
2018-05-12T14:45:12.801Z,3.30
2018-05-12T14:47:40.207Z,3.40
2018-05-12T14:57:28.558Z,2.60
2018-05-12T14:59:56.730Z,3.08
2018-05-12T15:02:24.158Z,3.80
2018-05-12T15:12:13.203Z,4.10
2018-05-12T15:14:41.370Z,3.20
2018-05-12T15:17:08.776Z,4.70
2018-05-12T15:19:36.187Z,3.03
2018-05-12T15:26:58.278Z,3.33
2018-05-12T15:29:25.696Z,3.90
2018-05-12T15:31:53.103Z,3.50
2018-05-12T15:34:20.512Z,2.97
2018-05-12T15:36:47.928Z,3.10
2018-05-12T15:39:16.104Z,3.22
2018-05-12T15:41:43.511Z,4.40
2018-05-12T15:44:10.948Z,2.95
2018-05-12T15:46:38.335Z,3.47
2018-05-12T15:49:05.800Z,2.90
2018-05-12T15:51:33.178Z,3.05
2018-05-12T15:54:00.571Z,2.60
2018-05-12T15:56:27.978Z,3.15
2018-05-12T15:58:56.151Z,3.50
2018-05-12T16:01:23.562Z,2.97
2018-05-12T16:03:50.962Z,4.85
2018-05-12T16:06:18.354Z,3.28
2018-05-12T16:08:46.523Z,4.22
2018-05-12T16:11:13.930Z,4.00
2018-05-12T16:13:41.332Z,2.80
2018-05-12T16:16:08.735Z,2.87
2018-05-12T16:18:36.915Z,3.12
2018-05-12T16:21:04.318Z,2.50
2018-05-12T16:23:31.724Z,3.80
2018-05-12T16:25:59.135Z,3.83
2018-05-12T16:28:26.541Z,3.10
2018-05-12T16:30:53.955Z,3.87
2018-05-12T16:33:21.367Z,3.42
2018-05-12T16:35:48.775Z,3.40
2018-05-12T16:38:16.949Z,3.30
2018-05-12T16:43:11.315Z,3.40
2018-05-12T16:45:39.487Z,3.30
2018-05-12T16:48:06.886Z,2.85
2018-05-12T16:50:34.336Z,2.50
2018-05-12T16:53:01.732Z,2.65
2018-05-12T16:55:29.137Z,4.07
2018-05-12T16:57:57.306Z,5.37
2018-05-12T17:00:24.738Z,3.95
2018-05-12T17:02:52.899Z,2.58
2018-05-12T17:05:20.316Z,4.22
2018-05-12T17:07:47.723Z,2.50
2018-05-12T17:10:15.152Z,2.83
2018-05-12T17:12:42.555Z,3.25
2018-05-12T17:15:10.727Z,2.70
2018-05-12T17:17:38.134Z,5.05
2018-05-12T17:20:05.535Z,2.72
2018-05-12T17:22:32.943Z,3.10
2018-05-12T17:25:01.111Z,2.65
2018-05-12T17:27:28.519Z,3.30
2018-05-12T17:29:56.006Z,3.95
2018-05-12T17:32:23.352Z,3.05
2018-05-12T17:34:50.759Z,6.32
2018-05-12T17:37:18.959Z,2.72
2018-05-12T17:39:46.411Z,4.45
2018-05-12T17:42:13.830Z,4.07
2018-05-12T17:44:41.230Z,3.92
2018-05-12T17:47:09.413Z,4.20
2018-05-12T17:49:36.818Z,6.35
2018-05-12T17:52:04.228Z,4.72
2018-05-12T17:54:31.633Z,3.47
2018-05-12T17:56:59.817Z,3.37
2018-05-12T17:59:27.211Z,4.28
2018-05-12T18:01:55.395Z,3.50
2018-05-12T18:04:22.819Z,4.85
2018-05-12T18:06:51.019Z,5.05
2018-05-12T18:09:18.419Z,3.35
2018-05-12T18:11:46.591Z,4.68
2018-05-12T18:14:14.002Z,3.47
2018-05-12T18:16:41.412Z,4.75
2018-05-12T18:19:08.820Z,3.70
2018-05-12T18:21:37.003Z,3.42
2018-05-12T18:24:04.452Z,5.78
2018-05-12T18:26:31.846Z,4.97
2018-05-12T18:29:00.017Z,4.47
2018-05-12T18:31:27.438Z,3.70
2018-05-12T18:33:55.598Z,3.60
2018-05-12T18:36:23.778Z,3.70
2018-05-12T18:38:51.192Z,7.50
2018-05-12T18:41:18.613Z,6.90
2018-05-12T18:43:46.012Z,5.43
2018-05-12T18:46:13.432Z,6.07
2018-05-12T18:48:40.821Z,6.80
2018-05-12T18:51:08.230Z,9.40
2018-05-12T18:53:35.655Z,6.53
2018-05-12T18:56:03.830Z,8.67
2018-05-12T18:58:31.235Z,7.63
2018-05-12T19:00:58.645Z,7.50
2018-05-12T19:03:26.065Z,15.57
2018-05-12T19:05:53.514Z,7.77
2018-05-12T19:08:20.993Z,7.67
2018-05-12T19:10:49.099Z,7.80
2018-05-12T19:13:16.516Z,8.03
2018-05-12T19:15:44.694Z,7.87
2018-05-12T19:18:12.856Z,9.67
2018-05-12T19:20:40.262Z,8.23
2018-05-12T19:23:07.754Z,8.73
2018-05-12T19:25:35.154Z,8.87
2018-05-12T19:28:03.322Z,11.20
2018-05-12T19:30:31.502Z,7.67
2018-05-12T19:32:58.911Z,6.83
2018-05-12T19:35:27.083Z,6.27
2018-05-12T19:37:55.275Z,6.83
2018-05-12T19:40:22.697Z,5.77
2018-05-12T19:42:50.095Z,5.83
2018-05-12T19:45:17.499Z,6.17
2018-05-12T19:47:44.894Z,5.70
2018-05-12T19:50:13.074Z,5.90
2018-05-12T19:52:40.487Z,6.33
2018-05-12T19:55:08.659Z,6.27
2018-05-12T19:57:36.836Z,7.17
2018-05-12T20:00:04.252Z,8.87
2018-05-12T20:02:32.430Z,6.07
2018-05-12T20:04:59.835Z,6.40
2018-05-12T20:07:27.266Z,5.80
2018-05-12T20:09:54.756Z,6.63
2018-05-12T20:12:22.087Z,5.77
2018-05-12T20:14:50.255Z,5.77
2018-05-12T20:17:17.655Z,6.00
2018-05-12T20:19:45.065Z,5.67
2018-05-12T20:22:12.522Z,6.40
2018-05-12T20:24:39.934Z,10.73
2018-05-12T20:27:07.349Z,6.87
2018-05-12T20:29:35.519Z,7.03
2018-05-12T20:32:02.919Z,8.90
2018-05-12T20:34:30.318Z,9.20
2018-05-12T20:36:57.749Z,7.20
2018-05-12T20:39:25.908Z,8.10
2018-05-12T20:41:53.323Z,7.03
2018-05-12T20:44:21.509Z,8.17
2018-05-12T20:46:48.918Z,7.60
2018-05-12T20:49:16.322Z,6.63
2018-05-12T20:51:43.728Z,6.83
2018-05-12T20:54:11.163Z,5.70
2018-05-12T20:56:39.319Z,6.03
2018-05-12T20:59:06.739Z,6.57
2018-05-12T21:01:34.182Z,6.33
2018-05-12T21:04:03.282Z,8.83
2018-05-12T21:06:30.687Z,5.97
2018-05-12T21:08:58.107Z,6.87
2018-05-12T21:11:25.507Z,6.80
2018-05-12T21:13:52.983Z,8.67
2018-05-12T21:16:20.402Z,6.87
2018-05-12T21:18:47.811Z,6.20
2018-05-12T21:21:15.983Z,6.70
2018-05-12T21:23:44.221Z,6.30
2018-05-12T21:26:11.727Z,5.80
2018-05-12T21:28:39.111Z,5.97
2018-05-12T21:31:07.292Z,6.00
2018-05-12T21:33:34.710Z,6.10
2018-05-12T21:36:02.901Z,5.80
2018-05-12T21:38:30.299Z,7.17
2018-05-12T21:40:57.716Z,7.77
2018-05-12T21:43:25.135Z,8.57
2018-05-12T21:45:52.547Z,7.60
2018-05-12T21:48:19.943Z,7.50
2018-05-12T21:50:47.352Z,7.47
2018-05-12T21:53:14.763Z,7.47
2018-05-12T21:55:42.966Z,6.77
2018-05-12T21:58:10.373Z,6.60
2018-05-12T22:00:37.778Z,6.60
2018-05-12T22:03:05.187Z,6.80
2018-05-12T22:05:32.618Z,5.90
2018-05-12T22:08:00.045Z,6.97
2018-05-12T22:10:28.195Z,5.33
2018-05-12T22:15:23.343Z,5.23
2018-05-12T22:17:50.755Z,4.60
2018-05-12T22:20:18.192Z,4.97
2018-05-12T22:22:45.607Z,5.40
2018-05-12T22:25:13.775Z,5.60
2018-05-12T22:27:41.182Z,5.60
2018-05-12T22:30:08.583Z,4.80
2018-05-12T22:32:36.009Z,5.20
2018-05-12T22:35:03.420Z,4.60
2018-05-12T22:37:30.806Z,4.40
2018-05-12T22:42:25.171Z,4.93
2018-05-12T22:44:52.588Z,5.03
2018-05-12T22:47:20.837Z,4.47
2018-05-12T22:49:48.163Z,4.67
2018-05-12T23:04:31.944Z,4.95
2018-05-12T23:16:47.192Z,5.55
2018-05-12T23:26:35.510Z,5.17
2018-05-12T23:29:02.925Z,6.50
2018-05-12T23:31:30.332Z,5.03
2018-05-12T23:33:57.760Z,4.90
2018-05-12T23:36:25.171Z,5.20
2018-05-12T23:46:15.239Z,5.20
2018-05-12T23:48:43.439Z,7.47
